sensor_id;sensor_type;location;lat;lon;timestamp;pressure;altitude;pressure_sealevel;temperature;humidity
20119;BME280;10220;42.716;23.306;2023-07-20T00:01:46;94920.41;;;24.08;100.00
20119;BME280;10220;42.716;23.306;2023-07-20T00:04:13;94921.25;;;23.90;100.00
20119;BME280;10220;42.716;23.306;2023-07-20T00:06:39;94925.75;;;23.90;100.00
20119;BME280;10220;42.716;23.306;2023-07-20T00:09:08;94938.03;;;23.99;100.00
20119;BME280;10220;42.716;23.306;2023-07-20T00:14:19;94934.25;;;24.05;100.00
20119;BME280;10220;42.716;23.306;2023-07-20T00:16:45;94927.41;;;23.72;100.00
20119;BME280;10220;42.716;23.306;2023-07-20T00:19:12;94928.19;;;23.36;100.00
20119;BME280;10220;42.716;23.306;2023-07-20T00:21:38;94942.06;;;23.28;100.00
20119;BME280;10220;42.716;23.306;2023-07-20T00:24:05;94935.34;;;23.17;100.00
20119;BME280;10220;42.716;23.306;2023-07-20T00:26:31;94952.50;;;23.20;100.00
20119;BME280;10220;42.716;23.306;2023-07-20T00:28:56;94938.72;;;23.41;100.00
20119;BME280;10220;42.716;23.306;2023-07-20T00:31:22;94948.06;;;23.34;100.00
20119;BME280;10220;42.716;23.306;2023-07-20T00:33:47;94927.03;;;23.42;100.00
20119;BME280;10220;42.716;23.306;2023-07-20T00:36:12;94952.63;;;23.65;100.00
20119;BME280;10220;42.716;23.306;2023-07-20T00:38:38;94951.84;;;23.46;100.00
20119;BME280;10220;42.716;23.306;2023-07-20T00:41:04;94948.31;;;22.72;100.00
20119;BME280;10220;42.716;23.306;2023-07-20T00:43:29;94939.63;;;22.72;100.00
20119;BME280;10220;42.716;23.306;2023-07-20T00:45:55;94939.25;;;22.60;100.00
20119;BME280;10220;42.716;23.306;2023-07-20T00:48:21;94948.22;;;22.82;100.00
20119;BME280;10220;42.716;23.306;2023-07-20T00:50:47;94938.97;;;22.61;100.00
20119;BME280;10220;42.716;23.306;2023-07-20T00:53:13;94928.16;;;22.58;100.00
20119;BME280;10220;42.716;23.306;2023-07-20T00:55:39;94919.03;;;22.50;100.00
20119;BME280;10220;42.716;23.306;2023-07-20T00:58:05;94913.66;;;22.55;100.00
20119;BME280;10220;42.716;23.306;2023-07-20T01:00:30;94917.94;;;22.51;100.00
20119;BME280;10220;42.716;23.306;2023-07-20T01:02:56;94927.75;;;22.69;100.00
20119;BME280;10220;42.716;23.306;2023-07-20T01:05:28;94920.03;;;22.31;100.00
20119;BME280;10220;42.716;23.306;2023-07-20T01:08:03;94900.38;;;22.14;100.00
20119;BME280;10220;42.716;23.306;2023-07-20T01:10:39;94925.81;;;21.82;100.00
20119;BME280;10220;42.716;23.306;2023-07-20T01:13:07;94928.00;;;21.70;100.00
20119;BME280;10220;42.716;23.306;2023-07-20T01:15:35;94911.53;;;21.49;100.00
20119;BME280;10220;42.716;23.306;2023-07-20T01:18:01;94921.56;;;21.52;100.00
20119;BME280;10220;42.716;23.306;2023-07-20T01:20:27;94921.47;;;21.90;100.00
20119;BME280;10220;42.716;23.306;2023-07-20T01:28:35;94929.16;;;21.59;100.00
20119;BME280;10220;42.716;23.306;2023-07-20T01:31:20;94921.91;;;21.36;100.00
20119;BME280;10220;42.716;23.306;2023-07-20T01:33:47;94926.66;;;21.39;100.00
20119;BME280;10220;42.716;23.306;2023-07-20T01:36:16;94929.19;;;21.49;100.00
20119;BME280;10220;42.716;23.306;2023-07-20T01:38:43;94929.16;;;22.15;100.00
20119;BME280;10220;42.716;23.306;2023-07-20T01:41:10;94922.53;;;21.61;100.00
20119;BME280;10220;42.716;23.306;2023-07-20T01:43:36;94916.66;;;21.69;100.00
20119;BME280;10220;42.716;23.306;2023-07-20T01:46:01;94920.16;;;22.16;100.00
20119;BME280;10220;42.716;23.306;2023-07-20T01:48:27;94919.13;;;22.41;100.00
20119;BME280;10220;42.716;23.306;2023-07-20T01:50:52;94906.00;;;22.07;100.00
20119;BME280;10220;42.716;23.306;2023-07-20T01:53:19;94938.44;;;21.46;100.00
20119;BME280;10220;42.716;23.306;2023-07-20T01:55:45;94921.72;;;21.27;100.00
20119;BME280;10220;42.716;23.306;2023-07-20T01:58:10;94926.34;;;21.45;100.00
20119;BME280;10220;42.716;23.306;2023-07-20T02:00:38;94904.94;;;21.80;100.00
20119;BME280;10220;42.716;23.306;2023-07-20T02:03:04;94916.19;;;21.90;100.00
20119;BME280;10220;42.716;23.306;2023-07-20T02:05:30;94915.50;;;21.52;100.00
20119;BME280;10220;42.716;23.306;2023-07-20T02:07:55;94906.13;;;21.97;100.00
20119;BME280;10220;42.716;23.306;2023-07-20T02:10:21;94919.47;;;22.06;100.00
20119;BME280;10220;42.716;23.306;2023-07-20T02:12:46;94871.28;;;22.19;100.00
20119;BME280;10220;42.716;23.306;2023-07-20T02:15:14;94903.06;;;21.85;100.00
20119;BME280;10220;42.716;23.306;2023-07-20T02:17:42;94911.22;;;22.12;100.00
20119;BME280;10220;42.716;23.306;2023-07-20T02:20:08;94914.50;;;22.74;100.00
20119;BME280;10220;42.716;23.306;2023-07-20T02:22:37;94922.47;;;22.69;100.00
20119;BME280;10220;42.716;23.306;2023-07-20T02:25:07;94922.13;;;22.34;100.00
20119;BME280;10220;42.716;23.306;2023-07-20T02:27:33;94915.38;;;21.95;100.00
20119;BME280;10220;42.716;23.306;2023-07-20T02:29:59;94915.94;;;21.92;100.00
20119;BME280;10220;42.716;23.306;2023-07-20T02:32:24;94872.91;;;21.91;100.00
20119;BME280;10220;42.716;23.306;2023-07-20T02:34:50;94867.59;;;22.20;100.00
20119;BME280;10220;42.716;23.306;2023-07-20T02:37:16;94883.84;;;22.32;100.00
20119;BME280;10220;42.716;23.306;2023-07-20T02:39:42;94885.91;;;22.58;100.00
20119;BME280;10220;42.716;23.306;2023-07-20T02:42:07;94893.63;;;22.31;100.00
20119;BME280;10220;42.716;23.306;2023-07-20T02:44:32;94888.81;;;21.58;100.00
20119;BME280;10220;42.716;23.306;2023-07-20T02:47:28;94886.66;;;21.88;100.00
20119;BME280;10220;42.716;23.306;2023-07-20T02:49:55;94877.16;;;22.16;100.00
20119;BME280;10220;42.716;23.306;2023-07-20T02:52:20;94866.06;;;22.14;100.00
20119;BME280;10220;42.716;23.306;2023-07-20T02:54:46;94884.84;;;21.61;100.00
20119;BME280;10220;42.716;23.306;2023-07-20T02:57:11;94876.28;;;21.40;100.00
20119;BME280;10220;42.716;23.306;2023-07-20T02:59:37;94894.31;;;21.28;100.00
20119;BME280;10220;42.716;23.306;2023-07-20T03:02:02;94872.84;;;21.07;100.00
20119;BME280;10220;42.716;23.306;2023-07-20T03:04:28;94854.97;;;21.04;100.00
20119;BME280;10220;42.716;23.306;2023-07-20T03:06:54;94846.44;;;20.73;100.00
20119;BME280;10220;42.716;23.306;2023-07-20T03:09:19;94858.19;;;20.43;100.00
20119;BME280;10220;42.716;23.306;2023-07-20T03:11:44;94878.06;;;20.73;100.00
20119;BME280;10220;42.716;23.306;2023-07-20T03:14:10;94875.41;;;20.73;100.00
20119;BME280;10220;42.716;23.306;2023-07-20T03:16:35;94875.50;;;20.54;100.00
20119;BME280;10220;42.716;23.306;2023-07-20T03:19:01;94877.94;;;20.40;100.00
20119;BME280;10220;42.716;23.306;2023-07-20T03:21:26;94893.50;;;20.32;100.00
20119;BME280;10220;42.716;23.306;2023-07-20T03:23:52;94888.16;;;20.52;100.00
20119;BME280;10220;42.716;23.306;2023-07-20T03:26:17;94894.41;;;20.65;100.00
20119;BME280;10220;42.716;23.306;2023-07-20T03:28:43;94881.94;;;20.86;100.00
20119;BME280;10220;42.716;23.306;2023-07-20T03:31:09;94893.94;;;21.07;100.00
20119;BME280;10220;42.716;23.306;2023-07-20T03:33:34;94901.28;;;21.48;100.00
20119;BME280;10220;42.716;23.306;2023-07-20T03:36:00;94888.66;;;21.73;100.00
20119;BME280;10220;42.716;23.306;2023-07-20T03:38:26;94896.44;;;21.22;100.00
20119;BME280;10220;42.716;23.306;2023-07-20T03:40:53;94896.53;;;21.45;100.00
20119;BME280;10220;42.716;23.306;2023-07-20T03:43:19;94900.88;;;21.31;100.00
20119;BME280;10220;42.716;23.306;2023-07-20T03:45:45;94894.00;;;20.92;100.00
20119;BME280;10220;42.716;23.306;2023-07-20T03:48:11;94887.19;;;20.91;100.00
20119;BME280;10220;42.716;23.306;2023-07-20T03:50:36;94882.53;;;20.78;100.00
20119;BME280;10220;42.716;23.306;2023-07-20T03:53:02;94892.22;;;20.82;100.00
20119;BME280;10220;42.716;23.306;2023-07-20T03:55:27;94896.63;;;20.92;100.00
20119;BME280;10220;42.716;23.306;2023-07-20T03:57:53;94905.53;;;21.01;100.00
20119;BME280;10220;42.716;23.306;2023-07-20T04:00:18;94890.34;;;20.88;100.00
20119;BME280;10220;42.716;23.306;2023-07-20T04:02:44;94877.59;;;21.05;100.00
20119;BME280;10220;42.716;23.306;2023-07-20T04:05:09;94907.34;;;21.43;100.00
20119;BME280;10220;42.716;23.306;2023-07-20T04:07:35;94891.91;;;21.65;100.00
20119;BME280;10220;42.716;23.306;2023-07-20T04:10:00;94891.25;;;21.50;100.00
20119;BME280;10220;42.716;23.306;2023-07-20T04:12:26;94903.81;;;21.91;100.00
20119;BME280;10220;42.716;23.306;2023-07-20T04:14:51;94904.16;;;21.80;100.00
20119;BME280;10220;42.716;23.306;2023-07-20T04:17:17;94879.78;;;21.31;100.00
20119;BME280;10220;42.716;23.306;2023-07-20T04:19:43;94890.34;;;21.31;100.00
20119;BME280;10220;42.716;23.306;2023-07-20T04:22:08;94881.56;;;21.40;100.00
20119;BME280;10220;42.716;23.306;2023-07-20T04:24:34;94872.59;;;21.41;100.00
20119;BME280;10220;42.716;23.306;2023-07-20T04:26:59;94876.59;;;21.67;100.00
20119;BME280;10220;42.716;23.306;2023-07-20T04:29:24;94870.56;;;22.13;100.00
20119;BME280;10220;42.716;23.306;2023-07-20T04:31:52;94879.63;;;22.31;100.00
20119;BME280;10220;42.716;23.306;2023-07-20T04:34:18;94880.03;;;22.43;100.00
20119;BME280;10220;42.716;23.306;2023-07-20T04:36:43;94882.91;;;22.64;100.00
20119;BME280;10220;42.716;23.306;2023-07-20T04:39:09;94888.00;;;22.61;100.00
20119;BME280;10220;42.716;23.306;2023-07-20T04:41:35;94872.78;;;22.71;100.00
20119;BME280;10220;42.716;23.306;2023-07-20T04:44:00;94876.25;;;22.48;100.00
20119;BME280;10220;42.716;23.306;2023-07-20T04:46:26;94885.81;;;22.44;100.00
20119;BME280;10220;42.716;23.306;2023-07-20T04:48:51;94877.22;;;22.34;100.00
20119;BME280;10220;42.716;23.306;2023-07-20T04:51:17;94877.72;;;22.96;100.00
20119;BME280;10220;42.716;23.306;2023-07-20T04:53:48;94882.09;;;22.87;100.00
20119;BME280;10220;42.716;23.306;2023-07-20T04:56:14;94880.56;;;22.16;100.00
20119;BME280;10220;42.716;23.306;2023-07-20T04:58:39;94870.81;;;22.17;100.00
20119;BME280;10220;42.716;23.306;2023-07-20T05:01:05;94883.13;;;22.49;100.00
20119;BME280;10220;42.716;23.306;2023-07-20T05:03:30;94884.53;;;23.02;100.00
20119;BME280;10220;42.716;23.306;2023-07-20T05:05:57;94888.19;;;23.24;100.00
20119;BME280;10220;42.716;23.306;2023-07-20T05:08:22;94888.06;;;23.48;100.00
20119;BME280;10220;42.716;23.306;2023-07-20T05:10:48;94886.25;;;23.30;100.00
20119;BME280;10220;42.716;23.306;2023-07-20T05:13:13;94892.66;;;24.06;100.00
20119;BME280;10220;42.716;23.306;2023-07-20T05:15:39;94912.41;;;25.29;100.00
20119;BME280;10220;42.716;23.306;2023-07-20T05:18:04;94894.38;;;26.04;100.00
20119;BME280;10220;42.716;23.306;2023-07-20T05:20:30;94906.69;;;24.86;100.00
20119;BME280;10220;42.716;23.306;2023-07-20T05:22:57;94912.06;;;25.22;100.00
20119;BME280;10220;42.716;23.306;2023-07-20T05:25:22;94897.78;;;25.53;100.00
20119;BME280;10220;42.716;23.306;2023-07-20T05:27:48;94903.19;;;24.64;100.00
20119;BME280;10220;42.716;23.306;2023-07-20T05:30:13;94908.75;;;25.38;100.00
20119;BME280;10220;42.716;23.306;2023-07-20T05:32:39;94908.22;;;23.94;100.00
20119;BME280;10220;42.716;23.306;2023-07-20T05:35:04;94906.88;;;25.17;100.00
20119;BME280;10220;42.716;23.306;2023-07-20T05:37:30;94899.88;;;25.64;100.00
20119;BME280;10220;42.716;23.306;2023-07-20T05:39:56;94902.47;;;26.00;100.00
20119;BME280;10220;42.716;23.306;2023-07-20T05:42:21;94912.03;;;25.79;100.00
20119;BME280;10220;42.716;23.306;2023-07-20T05:44:47;94933.72;;;24.62;100.00
20119;BME280;10220;42.716;23.306;2023-07-20T05:47:18;94932.19;;;24.16;100.00
20119;BME280;10220;42.716;23.306;2023-07-20T05:49:43;94927.53;;;24.66;100.00
20119;BME280;10220;42.716;23.306;2023-07-20T05:52:08;94912.59;;;24.57;100.00
20119;BME280;10220;42.716;23.306;2023-07-20T05:54:34;94922.63;;;24.60;100.00
20119;BME280;10220;42.716;23.306;2023-07-20T05:56:59;94892.97;;;24.58;100.00
20119;BME280;10220;42.716;23.306;2023-07-20T05:59:27;94914.13;;;25.68;100.00
20119;BME280;10220;42.716;23.306;2023-07-20T06:01:54;94911.97;;;25.00;100.00
20119;BME280;10220;42.716;23.306;2023-07-20T06:04:20;94910.97;;;25.44;100.00
20119;BME280;10220;42.716;23.306;2023-07-20T06:06:45;94922.50;;;26.05;100.00
20119;BME280;10220;42.716;23.306;2023-07-20T06:09:11;94906.59;;;25.84;100.00
20119;BME280;10220;42.716;23.306;2023-07-20T06:11:38;94903.16;;;25.61;100.00
20119;BME280;10220;42.716;23.306;2023-07-20T06:14:04;94922.44;;;25.32;100.00
20119;BME280;10220;42.716;23.306;2023-07-20T06:16:30;94918.56;;;25.73;100.00
20119;BME280;10220;42.716;23.306;2023-07-20T06:18:55;94888.69;;;26.28;100.00
20119;BME280;10220;42.716;23.306;2023-07-20T06:21:21;94903.56;;;25.33;100.00
20119;BME280;10220;42.716;23.306;2023-07-20T06:23:46;94894.28;;;25.44;100.00
20119;BME280;10220;42.716;23.306;2023-07-20T06:26:12;94892.25;;;25.85;100.00
20119;BME280;10220;42.716;23.306;2023-07-20T06:28:37;94882.56;;;26.19;100.00
20119;BME280;10220;42.716;23.306;2023-07-20T06:31:03;94894.84;;;25.54;100.00
20119;BME280;10220;42.716;23.306;2023-07-20T06:33:29;94852.84;;;24.99;100.00
20119;BME280;10220;42.716;23.306;2023-07-20T06:35:55;94871.88;;;25.15;100.00
20119;BME280;10220;42.716;23.306;2023-07-20T06:38:22;94883.66;;;25.22;100.00
20119;BME280;10220;42.716;23.306;2023-07-20T06:40:49;94899.78;;;25.69;100.00
20119;BME280;10220;42.716;23.306;2023-07-20T06:43:14;94901.94;;;25.67;100.00
20119;BME280;10220;42.716;23.306;2023-07-20T06:45:40;94862.38;;;25.36;100.00
20119;BME280;10220;42.716;23.306;2023-07-20T06:48:06;94898.16;;;25.60;100.00
20119;BME280;10220;42.716;23.306;2023-07-20T06:50:31;94901.41;;;25.57;100.00
20119;BME280;10220;42.716;23.306;2023-07-20T06:52:57;94895.00;;;25.58;100.00
20119;BME280;10220;42.716;23.306;2023-07-20T06:55:23;94874.06;;;25.56;100.00
20119;BME280;10220;42.716;23.306;2023-07-20T06:57:49;94912.53;;;26.11;100.00
20119;BME280;10220;42.716;23.306;2023-07-20T07:00:15;94906.13;;;26.12;100.00
20119;BME280;10220;42.716;23.306;2023-07-20T07:02:40;94916.22;;;25.93;100.00
20119;BME280;10220;42.716;23.306;2023-07-20T07:05:06;94894.22;;;25.57;100.00
20119;BME280;10220;42.716;23.306;2023-07-20T07:07:31;94904.44;;;25.86;100.00
20119;BME280;10220;42.716;23.306;2023-07-20T07:09:57;94920.59;;;26.28;100.00
20119;BME280;10220;42.716;23.306;2023-07-20T07:12:25;94905.69;;;26.40;100.00
20119;BME280;10220;42.716;23.306;2023-07-20T07:14:50;94921.00;;;26.90;100.00
20119;BME280;10220;42.716;23.306;2023-07-20T07:17:16;94927.66;;;27.18;97.81
20119;BME280;10220;42.716;23.306;2023-07-20T07:19:41;94923.44;;;27.25;95.28
20119;BME280;10220;42.716;23.306;2023-07-20T07:22:07;94959.00;;;27.46;95.87
20119;BME280;10220;42.716;23.306;2023-07-20T07:24:32;94960.53;;;27.05;99.42
20119;BME280;10220;42.716;23.306;2023-07-20T07:27:01;94956.66;;;27.36;97.02
20119;BME280;10220;42.716;23.306;2023-07-20T07:29:27;94962.94;;;28.08;91.42
20119;BME280;10220;42.716;23.306;2023-07-20T07:31:52;94966.06;;;27.76;96.45
20119;BME280;10220;42.716;23.306;2023-07-20T07:34:17;94945.41;;;27.65;96.69
20119;BME280;10220;42.716;23.306;2023-07-20T07:36:44;94949.28;;;27.42;96.53
20119;BME280;10220;42.716;23.306;2023-07-20T07:39:10;94940.81;;;27.31;97.20
20119;BME280;10220;42.716;23.306;2023-07-20T07:41:36;94951.34;;;27.53;100.00
20119;BME280;10220;42.716;23.306;2023-07-20T07:44:01;94941.44;;;28.30;91.21
20119;BME280;10220;42.716;23.306;2023-07-20T07:46:27;94949.06;;;28.48;86.38
20119;BME280;10220;42.716;23.306;2023-07-20T07:48:52;94891.81;;;27.75;88.44
20119;BME280;10220;42.716;23.306;2023-07-20T07:51:18;94895.59;;;28.36;86.12
20119;BME280;10220;42.716;23.306;2023-07-20T07:53:46;94923.22;;;28.32;89.69
20119;BME280;10220;42.716;23.306;2023-07-20T07:56:11;94900.94;;;28.36;91.01
20119;BME280;10220;42.716;23.306;2023-07-20T07:58:36;94887.13;;;28.71;87.67
20119;BME280;10220;42.716;23.306;2023-07-20T08:01:02;94914.94;;;28.99;85.28
20119;BME280;10220;42.716;23.306;2023-07-20T08:03:28;94919.16;;;29.00;86.70
20119;BME280;10220;42.716;23.306;2023-07-20T08:05:54;94930.28;;;29.02;88.05
20119;BME280;10220;42.716;23.306;2023-07-20T08:08:25;94959.44;;;28.87;88.86
20119;BME280;10220;42.716;23.306;2023-07-20T08:10:55;94928.34;;;28.91;88.31
20119;BME280;10220;42.716;23.306;2023-07-20T08:13:21;94935.97;;;28.63;93.68
20119;BME280;10220;42.716;23.306;2023-07-20T08:15:50;94945.91;;;28.54;97.20
20119;BME280;10220;42.716;23.306;2023-07-20T08:18:18;94960.53;;;28.32;96.77
20119;BME280;10220;42.716;23.306;2023-07-20T08:20:45;94960.13;;;27.87;100.00
20119;BME280;10220;42.716;23.306;2023-07-20T08:23:10;94966.53;;;28.20;94.72
20119;BME280;10220;42.716;23.306;2023-07-20T08:25:42;94962.47;;;27.72;90.69
20119;BME280;10220;42.716;23.306;2023-07-20T08:28:14;94964.34;;;27.63;90.19
20119;BME280;10220;42.716;23.306;2023-07-20T08:30:42;94949.31;;;27.59;88.61
20119;BME280;10220;42.716;23.306;2023-07-20T08:35:34;94954.59;;;28.26;84.80
20119;BME280;10220;42.716;23.306;2023-07-20T08:37:59;94946.28;;;28.11;82.02
20119;BME280;10220;42.716;23.306;2023-07-20T08:40:25;94949.16;;;27.89;79.52
20119;BME280;10220;42.716;23.306;2023-07-20T08:42:50;94941.59;;;27.99;77.35
20119;BME280;10220;42.716;23.306;2023-07-20T08:45:17;94952.41;;;28.20;79.08
20119;BME280;10220;42.716;23.306;2023-07-20T08:47:43;94948.78;;;28.33;81.10
20119;BME280;10220;42.716;23.306;2023-07-20T08:50:11;94946.72;;;28.47;77.54
20119;BME280;10220;42.716;23.306;2023-07-20T08:52:38;94943.19;;;28.63;75.32
20119;BME280;10220;42.716;23.306;2023-07-20T08:55:03;94942.38;;;28.79;73.76
20119;BME280;10220;42.716;23.306;2023-07-20T08:57:33;94942.91;;;28.56;75.88
20119;BME280;10220;42.716;23.306;2023-07-20T09:00:00;94950.75;;;28.52;77.09
20119;BME280;10220;42.716;23.306;2023-07-20T09:02:30;94925.91;;;28.69;74.92
20119;BME280;10220;42.716;23.306;2023-07-20T09:04:58;94933.16;;;28.60;72.35
20119;BME280;10220;42.716;23.306;2023-07-20T09:07:25;94943.72;;;28.40;74.76
20119;BME280;10220;42.716;23.306;2023-07-20T09:09:50;94929.72;;;28.51;76.01
20119;BME280;10220;42.716;23.306;2023-07-20T09:12:15;94924.63;;;28.75;77.60
20119;BME280;10220;42.716;23.306;2023-07-20T09:14:44;94908.31;;;28.76;77.59
20119;BME280;10220;42.716;23.306;2023-07-20T09:17:14;94916.75;;;29.07;77.57
20119;BME280;10220;42.716;23.306;2023-07-20T09:19:47;94912.78;;;29.42;73.92
20119;BME280;10220;42.716;23.306;2023-07-20T09:22:13;94878.88;;;29.54;74.79
20119;BME280;10220;42.716;23.306;2023-07-20T09:24:38;94910.03;;;29.50;74.88
20119;BME280;10220;42.716;23.306;2023-07-20T09:27:04;94894.63;;;29.27;74.81
20119;BME280;10220;42.716;23.306;2023-07-20T09:29:30;94907.47;;;29.94;73.69
20119;BME280;10220;42.716;23.306;2023-07-20T09:34:25;94903.34;;;29.97;74.30
20119;BME280;10220;42.716;23.306;2023-07-20T09:36:52;94910.06;;;30.03;73.23
20119;BME280;10220;42.716;23.306;2023-07-20T09:39:18;94903.03;;;30.42;68.41
20119;BME280;10220;42.716;23.306;2023-07-20T09:41:43;94903.53;;;30.36;65.03
20119;BME280;10220;42.716;23.306;2023-07-20T09:44:10;94888.63;;;30.35;64.21
20119;BME280;10220;42.716;23.306;2023-07-20T09:46:46;94899.31;;;30.23;65.29
20119;BME280;10220;42.716;23.306;2023-07-20T09:49:12;94907.19;;;30.08;62.30
20119;BME280;10220;42.716;23.306;2023-07-20T09:51:37;94876.59;;;29.97;67.82
20119;BME280;10220;42.716;23.306;2023-07-20T09:54:04;94871.91;;;30.26;63.25
20119;BME280;10220;42.716;23.306;2023-07-20T09:56:30;94863.53;;;30.27;65.81
20119;BME280;10220;42.716;23.306;2023-07-20T09:58:56;94849.84;;;29.65;64.07
20119;BME280;10220;42.716;23.306;2023-07-20T10:01:26;94878.25;;;29.37;65.36
20119;BME280;10220;42.716;23.306;2023-07-20T10:03:54;94858.53;;;29.01;64.96
20119;BME280;10220;42.716;23.306;2023-07-20T10:06:23;94870.53;;;28.95;64.04
20119;BME280;10220;42.716;23.306;2023-07-20T10:08:53;94876.63;;;28.95;65.59
20119;BME280;10220;42.716;23.306;2023-07-20T10:11:22;94879.09;;;28.80;64.72
20119;BME280;10220;42.716;23.306;2023-07-20T10:13:51;94868.91;;;28.73;64.89
20119;BME280;10220;42.716;23.306;2023-07-20T10:16:39;94880.69;;;28.72;64.11
20119;BME280;10220;42.716;23.306;2023-07-20T10:19:26;94881.69;;;28.59;67.02
20119;BME280;10220;42.716;23.306;2023-07-20T10:22:00;94871.97;;;28.55;67.42
20119;BME280;10220;42.716;23.306;2023-07-20T10:24:29;94893.34;;;28.84;69.45
20119;BME280;10220;42.716;23.306;2023-07-20T10:26:57;94885.84;;;28.77;70.37
20119;BME280;10220;42.716;23.306;2023-07-20T10:29:25;94866.06;;;28.78;71.04
20119;BME280;10220;42.716;23.306;2023-07-20T10:31:53;94838.69;;;28.61;72.66
20119;BME280;10220;42.716;23.306;2023-07-20T10:34:19;94866.53;;;28.72;68.20
20119;BME280;10220;42.716;23.306;2023-07-20T10:36:45;94877.56;;;28.62;69.36
20119;BME280;10220;42.716;23.306;2023-07-20T10:39:46;94869.13;;;28.60;68.53
20119;BME280;10220;42.716;23.306;2023-07-20T10:42:12;94866.19;;;28.53;69.98
20119;BME280;10220;42.716;23.306;2023-07-20T10:44:41;94862.44;;;28.46;67.61
20119;BME280;10220;42.716;23.306;2023-07-20T10:47:11;94815.38;;;28.49;72.59
20119;BME280;10220;42.716;23.306;2023-07-20T10:49:59;94799.03;;;28.80;69.00
20119;BME280;10220;42.716;23.306;2023-07-20T10:52:44;94827.41;;;28.55;69.51
20119;BME280;10220;42.716;23.306;2023-07-20T10:55:29;94858.53;;;28.80;69.92
20119;BME280;10220;42.716;23.306;2023-07-20T10:58:13;94850.00;;;29.07;67.18
20119;BME280;10220;42.716;23.306;2023-07-20T11:00:56;94833.09;;;29.03;69.80
20119;BME280;10220;42.716;23.306;2023-07-20T11:03:38;94825.66;;;29.49;68.39
20119;BME280;10220;42.716;23.306;2023-07-20T11:06:35;94815.50;;;29.75;66.86
20119;BME280;10220;42.716;23.306;2023-07-20T11:09:10;94808.59;;;30.30;66.35
20119;BME280;10220;42.716;23.306;2023-07-20T11:11:38;94801.22;;;30.39;64.24
20119;BME280;10220;42.716;23.306;2023-07-20T11:14:05;94812.16;;;30.70;64.08
20119;BME280;10220;42.716;23.306;2023-07-20T11:16:45;94811.59;;;30.64;64.32
20119;BME280;10220;42.716;23.306;2023-07-20T11:19:16;94806.47;;;30.47;65.04
20119;BME280;10220;42.716;23.306;2023-07-20T11:21:44;94802.97;;;31.06;64.49
20119;BME280;10220;42.716;23.306;2023-07-20T11:24:28;94799.13;;;30.44;60.62
20119;BME280;10220;42.716;23.306;2023-07-20T11:26:55;94801.19;;;30.15;60.06
20119;BME280;10220;42.716;23.306;2023-07-20T11:29:22;94799.75;;;30.18;62.56
20119;BME280;10220;42.716;23.306;2023-07-20T11:31:48;94799.75;;;30.18;61.29
20119;BME280;10220;42.716;23.306;2023-07-20T11:34:16;94782.94;;;30.17;61.57
20119;BME280;10220;42.716;23.306;2023-07-20T11:36:43;94787.88;;;30.51;64.04
20119;BME280;10220;42.716;23.306;2023-07-20T11:39:13;94778.31;;;30.89;61.48
20119;BME280;10220;42.716;23.306;2023-07-20T11:41:46;94777.88;;;30.87;61.83
20119;BME280;10220;42.716;23.306;2023-07-20T11:44:12;94765.81;;;30.93;60.59
20119;BME280;10220;42.716;23.306;2023-07-20T11:46:44;94776.16;;;31.18;62.76
20119;BME280;10220;42.716;23.306;2023-07-20T11:49:10;94758.22;;;31.07;60.37
20119;BME280;10220;42.716;23.306;2023-07-20T11:51:36;94765.09;;;31.47;59.04
20119;BME280;10220;42.716;23.306;2023-07-20T11:54:03;94763.31;;;31.39;58.10
20119;BME280;10220;42.716;23.306;2023-07-20T11:56:29;94765.84;;;31.20;58.86
20119;BME280;10220;42.716;23.306;2023-07-20T11:58:57;94732.41;;;31.14;56.44
20119;BME280;10220;42.716;23.306;2023-07-20T12:01:25;94755.81;;;31.45;57.75
20119;BME280;10220;42.716;23.306;2023-07-20T12:03:55;94749.03;;;31.47;56.23
20119;BME280;10220;42.716;23.306;2023-07-20T12:06:23;94734.50;;;31.48;54.37
20119;BME280;10220;42.716;23.306;2023-07-20T12:08:50;94736.66;;;31.58;56.29
20119;BME280;10220;42.716;23.306;2023-07-20T12:11:33;94735.81;;;31.69;54.52
20119;BME280;10220;42.716;23.306;2023-07-20T12:13:59;94735.22;;;31.76;56.65
20119;BME280;10220;42.716;23.306;2023-07-20T12:16:28;94732.78;;;31.71;55.17
20119;BME280;10220;42.716;23.306;2023-07-20T12:19:02;94717.50;;;31.71;55.69
20119;BME280;10220;42.716;23.306;2023-07-20T12:21:29;94718.16;;;31.84;55.08
20119;BME280;10220;42.716;23.306;2023-07-20T12:23:56;94720.94;;;31.56;57.07
20119;BME280;10220;42.716;23.306;2023-07-20T12:26:22;94720.69;;;31.61;54.34
20119;BME280;10220;42.716;23.306;2023-07-20T12:28:49;94725.00;;;31.51;56.17
20119;BME280;10220;42.716;23.306;2023-07-20T12:31:15;94714.78;;;31.56;51.34
20119;BME280;10220;42.716;23.306;2023-07-20T12:33:40;94720.84;;;31.26;51.99
20119;BME280;10220;42.716;23.306;2023-07-20T12:36:06;94719.22;;;31.37;51.26
20119;BME280;10220;42.716;23.306;2023-07-20T12:38:32;94701.81;;;31.15;50.60
20119;BME280;10220;42.716;23.306;2023-07-20T12:40:59;94705.25;;;31.43;50.21
20119;BME280;10220;42.716;23.306;2023-07-20T12:43:25;94721.13;;;31.63;52.12
20119;BME280;10220;42.716;23.306;2023-07-20T12:45:51;94683.63;;;31.36;48.56
20119;BME280;10220;42.716;23.306;2023-07-20T12:48:16;94678.00;;;31.41;49.40
20119;BME280;10220;42.716;23.306;2023-07-20T12:50:42;94703.88;;;31.64;49.09
20119;BME280;10220;42.716;23.306;2023-07-20T12:53:07;94718.88;;;31.38;50.74
20119;BME280;10220;42.716;23.306;2023-07-20T12:55:33;94707.41;;;31.38;50.52
20119;BME280;10220;42.716;23.306;2023-07-20T12:57:58;94698.81;;;31.59;49.89
20119;BME280;10220;42.716;23.306;2023-07-20T13:00:24;94700.25;;;31.72;49.98